Time,TemperatureF,DewpointF,PressureIn,WindDirection,WindDirectionDegrees,WindSpeedMPH,WindSpeedGustMPH,Humidity,HourlyPrecipIn,Conditions,Clouds,dailyrainin,SoftwareType,DateUTC
2013-06-21 00:00:00,64.8,60.8,30.14,North,10,0.0,0.0,87,0.00,FEW,,0.00,WeatherDisplay:10.37,2013-06-21 04:00:00,
2013-06-21 00:15:00,64.5,60.6,30.14,North,10,0.0,0.0,87,0.00,FEW,,0.00,WeatherDisplay:10.37,2013-06-21 04:15:00,
2013-06-21 00:30:00,64.3,60.3,30.14,North,10,0.0,0.0,87,0.00,FEW,,0.00,WeatherDisplay:10.37,2013-06-21 04:30:00,
2013-06-21 00:45:00,64.2,60.2,30.14,North,10,0.0,0.0,87,0.00,OVC,,0.00,WeatherDisplay:10.37,2013-06-21 04:45:00,
2013-06-21 01:00:00,64.2,60.2,30.14,North,10,0.0,0.0,87,0.00,OVC,,0.00,WeatherDisplay:10.37,2013-06-21 05:00:00,
2013-06-21 01:15:00,64.1,60.2,30.14,North,10,0.0,0.0,87,0.00,OVC,,0.00,WeatherDisplay:10.37,2013-06-21 05:15:00,
2013-06-21 01:30:00,64.1,60.2,30.14,North,10,0.0,0.0,87,0.00,OVC,,0.00,WeatherDisplay:10.37,2013-06-21 05:30:00,
2013-06-21 01:45:00,64.1,60.2,30.13,North,10,0.0,0.0,87,0.00,BKN,,0.00,WeatherDisplay:10.37,2013-06-21 05:45:00,
2013-06-21 02:00:00,63.9,60.0,30.12,North,10,0.0,0.0,87,0.00,BKN,,0.00,WeatherDisplay:10.37,2013-06-21 06:00:00,
2013-06-21 02:15:00,63.6,60.0,30.13,North,10,0.0,1.0,88,0.00,BKN,,0.00,WeatherDisplay:10.37,2013-06-21 06:15:00,
2013-06-21 02:30:00,63.3,59.6,30.12,North,10,0.0,1.0,88,0.00,BKN,,0.00,WeatherDisplay:10.37,2013-06-21 06:30:00,
2013-06-21 02:45:00,63.3,59.6,30.12,North,10,0.0,0.0,88,0.00,FEW,,0.00,WeatherDisplay:10.37,2013-06-21 06:45:00,
2013-06-21 03:00:00,63.5,59.9,30.12,North,10,0.0,1.0,88,0.00,FEW,,0.00,WeatherDisplay:10.37,2013-06-21 07:00:00,
2013-06-21 03:15:00,63.5,59.9,30.12,North,10,0.0,0.0,88,0.00,FEW,,0.00,WeatherDisplay:10.37,2013-06-21 07:15:00,
2013-06-21 03:30:00,63.3,59.7,30.12,North,10,0.0,0.0,88,0.00,FEW,,0.00,WeatherDisplay:10.37,2013-06-21 07:30:00,
2013-06-21 03:45:00,62.9,59.3,30.12,North,10,0.0,0.0,88,0.00,CLR,,0.00,WeatherDisplay:10.37,2013-06-21 07:45:00,
2013-06-21 04:00:00,62.8,59.2,30.12,North,10,0.0,1.0,88,0.00,CLR,,0.00,WeatherDisplay:10.37,2013-06-21 08:00:00,
2013-06-21 04:15:00,62.8,59.2,30.12,North,10,0.0,0.0,88,0.00,CLR,,0.00,WeatherDisplay:10.37,2013-06-21 08:15:00,
2013-06-21 04:30:00,62.9,59.3,30.12,North,10,0.0,0.0,88,0.00,CLR,,0.00,WeatherDisplay:10.37,2013-06-21 08:30:00,
2013-06-21 04:45:00,63.1,59.5,30.12,North,10,0.0,0.0,88,0.00,BKN,,0.00,WeatherDisplay:10.37,2013-06-21 08:45:00,
2013-06-21 05:00:00,63.3,59.7,30.12,North,10,0.0,0.0,88,0.00,BKN,,0.00,WeatherDisplay:10.37,2013-06-21 09:00:00,
2013-06-21 05:15:00,63.4,59.8,30.13,North,10,0.0,0.0,88,0.00,BKN,,0.00,WeatherDisplay:10.37,2013-06-21 09:15:00,
2013-06-21 05:30:00,63.3,59.7,30.13,North,10,0.0,1.0,88,0.00,BKN,,0.00,WeatherDisplay:10.37,2013-06-21 09:30:00,
2013-06-21 05:45:00,63.1,59.5,30.13,North,10,0.0,1.0,88,0.00,BKN,,0.00,WeatherDisplay:10.37,2013-06-21 09:45:00,
2013-06-21 06:00:00,63.0,59.4,30.13,North,10,0.0,2.0,88,0.00,BKN,,0.00,WeatherDisplay:10.37,2013-06-21 10:00:00,
2013-06-21 06:15:00,62.6,59.0,30.14,NNE,26,0.0,3.0,88,0.00,BKN,,0.00,WeatherDisplay:10.37,2013-06-21 10:15:00,
2013-06-21 06:30:00,62.5,58.9,30.14,NNE,26,0.0,0.0,88,0.00,BKN,,0.00,WeatherDisplay:10.37,2013-06-21 10:30:00,
2013-06-21 06:45:00,62.5,58.9,30.14,NNE,26,0.0,0.0,88,0.00,BKN,,0.00,WeatherDisplay:10.37,2013-06-21 10:45:00,
2013-06-21 07:00:00,62.6,59.3,30.15,NNE,26,0.0,0.0,89,0.00,BKN,,0.00,WeatherDisplay:10.37,2013-06-21 11:00:00,
2013-06-21 07:15:00,62.7,59.1,30.15,NNE,26,0.0,0.0,88,0.00,BKN,,0.00,WeatherDisplay:10.37,2013-06-21 11:15:00,
2013-06-21 07:30:00,62.8,59.2,30.15,NNE,26,0.0,0.0,88,0.00,BKN,,0.00,WeatherDisplay:10.37,2013-06-21 11:30:00,
2013-06-21 07:45:00,62.9,59.3,30.16,NNE,26,0.0,0.0,88,0.00,CLR,,0.00,WeatherDisplay:10.37,2013-06-21 11:45:00,
2013-06-21 08:00:00,63.0,59.7,30.16,NNE,26,0.0,1.0,89,0.00,CLR,,0.00,WeatherDisplay:10.37,2013-06-21 12:00:00,
2013-06-21 08:15:00,63.3,59.7,30.16,NNE,30,0.0,3.0,88,0.00,CLR,,0.00,WeatherDisplay:10.37,2013-06-21 12:15:00,
2013-06-21 08:30:00,63.8,60.2,30.16,NNE,30,0.0,1.0,88,0.00,CLR,,0.00,WeatherDisplay:10.37,2013-06-21 12:30:00,
2013-06-21 08:45:00,64.3,60.6,30.16,NNE,30,0.0,2.0,88,0.00,CLR,,0.00,WeatherDisplay:10.37,2013-06-21 12:45:00,
2013-06-21 09:00:00,64.6,60.7,30.16,NNE,30,0.0,1.0,87,0.00,CLR,,0.00,WeatherDisplay:10.37,2013-06-21 13:00:00,
2013-06-21 09:15:00,65.0,61.1,30.16,NNE,32,0.0,2.0,87,0.00,CLR,,0.00,WeatherDisplay:10.37,2013-06-21 13:15:00,
2013-06-21 09:30:00,66.1,61.8,30.17,NE,52,0.0,5.0,86,0.00,CLR,,0.00,WeatherDisplay:10.37,2013-06-21 13:30:00,
2013-06-21 09:45:00,67.3,63.0,30.17,NE,53,0.0,3.0,86,0.00,FEW,,0.00,WeatherDisplay:10.37,2013-06-21 13:45:00,
2013-06-21 10:00:00,68.1,63.4,30.17,NE,55,1.0,4.0,85,0.00,FEW,,0.00,WeatherDisplay:10.37,2013-06-21 14:00:00,
2013-06-21 10:15:00,69.9,64.5,30.16,ENE,69,1.0,4.0,83,0.00,FEW,,0.00,WeatherDisplay:10.37,2013-06-21 14:15:00,
2013-06-21 10:30:00,70.4,64.3,30.16,ENE,69,1.0,4.0,81,0.00,FEW,,0.00,WeatherDisplay:10.37,2013-06-21 14:30:00,
2013-06-21 10:45:00,70.8,64.7,30.16,ENE,67,0.0,3.0,81,0.00,BKN,,0.00,WeatherDisplay:10.37,2013-06-21 14:45:00,
2013-06-21 11:00:00,71.8,65.7,30.16,ENE,66,3.0,4.0,81,0.00,BKN,,0.00,WeatherDisplay:10.37,2013-06-21 15:00:00,
2013-06-21 11:15:00,72.3,64.7,30.16,ENE,62,0.0,3.0,77,0.00,BKN,,0.00,WeatherDisplay:10.37,2013-06-21 15:15:00,
2013-06-21 11:30:00,73.9,64.7,30.16,North,356,0.0,5.0,73,0.00,BKN,,0.00,WeatherDisplay:10.37,2013-06-21 15:30:00,
2013-06-21 11:45:00,75.9,65.0,30.16,East,81,5.0,7.0,69,0.00,BKN,,0.00,WeatherDisplay:10.37,2013-06-21 15:45:00,
2013-06-21 12:00:00,76.4,63.3,30.16,ENE,60,2.0,5.0,64,0.00,BKN,,0.00,WeatherDisplay:10.37,2013-06-21 16:00:00,
2013-06-21 12:15:00,74.9,64.8,30.16,NE,56,0.0,4.0,71,0.00,BKN,,0.00,WeatherDisplay:10.37,2013-06-21 16:15:00,
2013-06-21 12:30:00,74.2,63.7,30.16,ENE,60,0.0,2.0,70,0.00,BKN,,0.00,WeatherDisplay:10.37,2013-06-21 16:30:00,
2013-06-21 12:45:00,75.9,64.1,30.15,NE,53,0.0,4.0,67,0.00,SCT,,0.00,WeatherDisplay:10.37,2013-06-21 16:45:00,
2013-06-21 13:00:00,76.0,64.2,30.15,ESE,108,3.0,5.0,67,0.00,SCT,,0.00,WeatherDisplay:10.37,2013-06-21 17:00:00,
2013-06-21 13:15:00,75.7,64.4,30.14,East,88,0.0,4.0,68,0.00,SCT,,0.00,WeatherDisplay:10.37,2013-06-21 17:15:00,
2013-06-21 13:30:00,76.9,63.8,30.14,ENE,70,1.0,5.0,64,0.00,SCT,,0.00,WeatherDisplay:10.37,2013-06-21 17:30:00,
2013-06-21 14:15:00,78.3,62.3,30.13,NE,37,0.0,6.0,58,0.00,BKN,,0.00,WeatherDisplay:10.37,2013-06-21 18:15:00,
2013-06-21 14:30:00,77.5,63.9,30.13,ESE,105,0.0,3.0,63,0.00,BKN,,0.00,WeatherDisplay:10.37,2013-06-21 18:30:00,
2013-06-21 14:45:00,78.1,64.5,30.12,NNW,329,3.0,6.0,63,0.00,SCT,,0.00,WeatherDisplay:10.37,2013-06-21 18:45:00,
2013-06-21 15:00:00,77.5,65.2,30.12,NW,311,2.0,5.0,66,0.00,SCT,,0.00,WeatherDisplay:10.37,2013-06-21 19:00:00,
2013-06-21 15:15:00,76.0,65.1,30.12,NW,311,0.0,6.0,69,0.00,SCT,,0.00,WeatherDisplay:10.37,2013-06-21 19:15:00,
2013-06-21 15:30:00,75.1,65.5,30.11,NW,308,0.0,6.0,72,0.00,SCT,,0.00,WeatherDisplay:10.37,2013-06-21 19:30:00,
2013-06-21 16:00:00,76.5,66.4,30.10,NW,308,2.0,7.0,71,0.00,SCT,,0.00,WeatherDisplay:10.37,2013-06-21 20:00:00,
2013-06-21 16:15:00,76.2,64.4,30.10,NE,39,2.0,9.0,67,0.00,SCT,,0.00,WeatherDisplay:10.37,2013-06-21 20:15:00,
2013-06-21 16:30:00,77.1,65.3,30.09,NW,312,3.0,9.0,67,0.00,SCT,,0.00,WeatherDisplay:10.37,2013-06-21 20:30:00,
2013-06-21 16:45:00,76.6,65.3,30.10,ENE,70,1.0,7.0,68,0.00,FEW,,0.00,WeatherDisplay:10.37,2013-06-21 20:45:00,
2013-06-21 17:00:00,75.1,65.9,30.09,North,4,0.0,3.0,73,0.00,FEW,,0.00,WeatherDisplay:10.37,2013-06-21 21:00:00,
2013-06-21 17:15:00,73.4,66.5,30.09,WNW,303,0.0,2.0,79,0.00,FEW,,0.00,WeatherDisplay:10.37,2013-06-21 21:15:00,
2013-06-21 17:30:00,72.6,66.4,30.09,WNW,303,0.0,2.0,81,0.00,FEW,,0.00,WeatherDisplay:10.37,2013-06-21 21:30:00,
2013-06-21 17:45:00,72.6,67.1,30.09,NW,304,0.0,2.0,83,0.00,CLR,,0.00,WeatherDisplay:10.37,2013-06-21 21:45:00,
2013-06-21 18:00:00,73.0,66.8,30.09,NE,53,0.0,2.0,81,0.00,CLR,,0.00,WeatherDisplay:10.37,2013-06-21 22:00:00,
2013-06-21 18:15:00,72.8,67.3,30.08,NE,53,0.0,2.0,83,0.00,CLR,,0.00,WeatherDisplay:10.37,2013-06-21 22:15:00,
2013-06-21 18:30:00,72.7,67.2,30.08,NE,53,0.0,2.0,83,0.00,CLR,,0.00,WeatherDisplay:10.37,2013-06-21 22:30:00,
2013-06-21 18:45:00,72.8,67.7,30.08,NE,53,0.0,1.0,84,0.00,BKN,,0.00,WeatherDisplay:10.37,2013-06-21 22:45:00,
2013-06-21 19:00:00,72.6,67.5,30.09,NE,53,0.0,1.0,84,0.00,BKN,,0.00,WeatherDisplay:10.37,2013-06-21 23:00:00,
2013-06-21 19:15:00,72.5,66.7,30.09,NE,51,1.0,4.0,82,0.00,BKN,,0.00,WeatherDisplay:10.37,2013-06-21 23:15:00,
2013-06-21 19:30:00,72.1,65.6,30.09,NE,49,0.0,2.0,80,0.00,BKN,,0.00,WeatherDisplay:10.37,2013-06-21 23:30:00,
2013-06-21 19:45:00,72.0,66.2,30.09,NE,49,0.0,1.0,82,0.00,CLR,,0.00,WeatherDisplay:10.37,2013-06-21 23:45:00,
2013-06-21 20:00:00,71.3,65.9,30.09,NE,49,0.0,2.0,83,0.00,CLR,,0.00,WeatherDisplay:10.37,2013-06-22 00:00:00,
2013-06-21 20:15:00,70.1,64.7,30.08,NE,49,0.0,2.0,83,0.00,CLR,,0.00,WeatherDisplay:10.37,2013-06-22 00:15:00,
2013-06-21 20:30:00,69.7,65.0,30.08,NE,49,0.0,0.0,85,0.00,CLR,,0.00,WeatherDisplay:10.37,2013-06-22 00:30:00,
2013-06-21 20:45:00,69.0,64.3,30.08,NE,49,0.0,1.0,85,0.00,CLR,,0.00,WeatherDisplay:10.37,2013-06-22 00:45:00,
2013-06-21 21:00:00,67.9,63.6,30.09,NE,49,0.0,1.0,86,0.00,CLR,,0.00,WeatherDisplay:10.37,2013-06-22 01:00:00,
2013-06-21 21:15:00,66.8,62.5,30.10,NE,48,0.0,1.0,86,0.00,CLR,,0.00,WeatherDisplay:10.37,2013-06-22 01:15:00,
2013-06-21 21:30:00,66.0,61.7,30.09,NE,49,0.0,0.0,86,0.00,CLR,,0.00,WeatherDisplay:10.37,2013-06-22 01:30:00,
2013-06-21 21:45:00,65.2,60.9,30.10,NE,49,0.0,0.0,86,0.00,CLR,,0.00,WeatherDisplay:10.37,2013-06-22 01:45:00,
2013-06-21 22:00:00,64.6,60.3,30.11,NE,49,0.0,0.0,86,0.00,CLR,,0.00,WeatherDisplay:10.37,2013-06-22 02:00:00,
2013-06-21 22:15:00,64.1,60.2,30.12,NE,49,0.0,0.0,87,0.00,CLR,,0.00,WeatherDisplay:10.37,2013-06-22 02:15:00,
2013-06-21 22:30:00,63.6,59.7,30.13,NE,49,0.0,0.0,87,0.00,CLR,,0.00,WeatherDisplay:10.37,2013-06-22 02:30:00,
2013-06-21 22:45:00,63.1,59.2,30.14,NE,49,0.0,0.0,87,0.00,CLR,,0.00,WeatherDisplay:10.37,2013-06-22 02:45:00,
2013-06-21 23:00:00,62.7,58.7,30.14,NE,49,0.0,0.0,87,0.00,CLR,,0.00,WeatherDisplay:10.37,2013-06-22 03:00:00,
2013-06-21 23:15:00,62.2,58.3,30.14,NE,49,0.0,1.0,87,0.00,CLR,,0.00,WeatherDisplay:10.37,2013-06-22 03:15:00,
2013-06-21 23:30:00,61.9,58.0,30.14,NE,49,0.0,0.0,87,0.00,CLR,,0.00,WeatherDisplay:10.37,2013-06-22 03:30:00,
2013-06-21 23:45:00,61.5,57.9,30.14,NE,49,0.0,0.0,88,0.00,BKN,,0.00,WeatherDisplay:10.37,2013-06-22 03:45:00,